Time;durP1;ratioP1;P1;durP2;ratioP2;P2;SDS_P1;SDS_P2;PMS_P1;PMS_P2;Temp;Humidity;BMP_temperature;BMP_pressure;BME280_temperature;BME280_humidity;BME280_pressure;Samples;Min_cycle;Max_cycle;Signal;HPM_P1;HPM_P2
2021/06/08 00:26:18;;;;;;;26.45;9.85;;;;;;;16.83;100.00;100447.47;1670140;86;21000;-93
2021/06/08 00:28:44;;;;;;;26.25;9.10;;;;;;;16.84;100.00;100447.70;1733429;82;21054;-91
2021/06/08 00:31:10;;;;;;;18.23;8.33;;;;;;;16.73;100.00;100428.02;1710735;83;20952;-91
2021/06/08 00:33:36;;;;;;;22.13;8.48;;;;;;;16.83;100.00;100448.83;1721338;83;20891;-91
2021/06/08 00:36:02;;;;;;;18.25;7.72;;;;;;;16.81;100.00;100450.48;1713508;83;21133;-91
2021/06/08 00:38:28;;;;;;;18.73;7.45;;;;;;;16.76;100.00;100455.46;1710877;83;21495;-92
2021/06/08 00:40:54;;;;;;;17.52;7.75;;;;;;;16.71;100.00;100445.23;1711087;83;21120;-92
2021/06/08 00:43:25;;;;;;;15.78;7.55;;;;;;;16.69;100.00;100442.00;1711013;83;21606;-92
2021/06/08 00:45:55;;;;;;;20.00;7.87;;;;;;;16.69;100.00;100442.00;1710927;83;21079;-92
2021/06/08 00:48:22;;;;;;;24.43;7.17;;;;;;;16.47;100.00;100413.63;1710952;83;21291;-92
2021/06/08 00:50:49;;;;;;;20.82;7.33;;;;;;;16.47;100.00;100413.63;1710890;83;21067;-92
2021/06/08 00:53:17;;;;;;;25.70;7.22;;;;;;;16.54;100.00;100434.41;1710902;83;20996;-94
2021/06/08 00:55:43;;;;;;;18.05;6.87;;;;;;;16.54;100.00;100441.20;1710861;83;21308;-92
2021/06/08 00:58:09;;;;;;;20.35;7.17;;;;;;;16.53;100.00;100438.25;1710847;83;21175;-92
2021/06/08 01:00:36;;;;;;;15.03;6.15;;;;;;;16.53;100.00;100432.80;1710936;83;21863;-93
2021/06/08 01:03:04;;;;;;;16.15;5.80;;;;;;;16.56;100.00;100426.75;1710804;83;21024;-93
2021/06/08 01:05:30;;;;;;;15.15;6.65;;;;;;;16.55;100.00;100425.69;1711334;83;21415;-92
2021/06/08 01:07:56;;;;;;;15.35;6.03;;;;;;;16.54;100.00;100426.24;1710971;83;20951;-93
2021/06/08 01:10:22;;;;;;;14.55;5.62;;;;;;;16.53;100.00;100422.45;1710945;83;20931;-93
2021/06/08 01:12:49;;;;;;;16.50;6.00;;;;;;;16.48;100.00;100426.66;1710831;83;21956;-91
2021/06/08 01:15:15;;;;;;;15.48;5.30;;;;;;;16.44;100.00;100431.08;1710943;83;21098;-92
2021/06/08 01:17:41;;;;;;;17.37;5.92;;;;;;;16.41;100.00;100434.41;1710880;83;21051;-88
2021/06/08 01:20:09;;;;;;;15.05;5.33;;;;;;;16.40;100.00;100428.72;1710764;83;21030;-93
2021/06/08 01:22:36;;;;;;;15.53;5.90;;;;;;;16.39;100.00;100432.00;1710901;83;21042;-93
2021/06/08 01:25:07;;;;;;;17.75;5.85;;;;;;;16.39;100.00;100442.08;1710988;83;21919;-93
2021/06/08 01:27:33;;;;;;;18.05;5.47;;;;;;;16.38;100.00;100437.73;1713732;82;21486;-93
2021/06/08 01:29:59;;;;;;;11.03;4.70;;;;;;;16.37;100.00;100438.29;1715488;83;20991;-93
2021/06/08 01:32:28;;;;;;;13.25;5.55;;;;;;;16.38;100.00;100429.57;1718519;83;21622;-93
2021/06/08 01:34:56;;;;;;;17.05;5.75;;;;;;;16.35;100.00;100441.33;1718648;83;21010;-94
2021/06/08 01:37:24;;;;;;;16.27;4.97;;;;;;;16.32;100.00;100441.93;1718582;83;21059;-94
2021/06/08 01:39:50;;;;;;;13.83;5.28;;;;;;;16.30;100.00;100441.42;1718487;83;20979;-93
2021/06/08 01:42:17;;;;;;;15.80;5.50;;;;;;;16.29;100.00;100447.14;1718790;83;21050;-94
2021/06/08 01:44:45;;;;;;;11.38;5.03;;;;;;;16.28;100.00;100456.42;1693526;83;21095;-94
2021/06/08 01:47:13;;;;;;;12.93;6.00;;;;;;;16.27;100.00;100454.81;1721221;83;21038;-94
2021/06/08 01:49:40;;;;;;;10.28;5.25;;;;;;;16.26;100.00;100455.91;1720043;83;21050;-94
2021/06/08 01:52:34;;;;;;;18.82;5.87;;;;;;;16.23;100.00;100457.31;1718590;83;20998;-94
2021/06/08 01:55:32;;;;;;;10.75;5.53;;;;;;;16.23;100.00;100457.31;1718408;83;21039;-94
2021/06/08 01:58:31;;;;;;;15.43;4.30;;;;;;;16.25;100.00;100455.11;1723628;83;21074;-93
2021/06/08 02:01:02;;;;;;;14.73;4.80;;;;;;;16.27;100.00;100462.98;1715158;83;21124;-94
2021/06/08 02:03:33;;;;;;;11.65;5.35;;;;;;;16.27;100.00;100462.98;1715596;83;21310;-94
2021/06/08 02:06:18;;;;;;;15.85;5.75;;;;;;;16.25;100.00;100465.98;1715278;83;21185;-94
2021/06/08 02:09:11;;;;;;;13.28;5.12;;;;;;;16.24;100.00;100465.73;1715606;81;20990;-90
2021/06/08 02:11:54;;;;;;;13.60;5.33;;;;;;;16.28;100.00;100461.30;1715373;83;21081;-94
2021/06/08 02:14:40;;;;;;;15.40;6.35;;;;;;;16.27;100.00;100468.41;1715416;83;21046;-94
2021/06/08 02:17:26;;;;;;;16.37;5.95;;;;;;;16.28;100.00;100470.81;1715935;83;21142;-94
2021/06/08 02:23:35;;;;;;;14.78;5.35;;;;;;;16.31;100.00;100472.13;1715025;83;21203;-93
2021/06/08 02:26:03;;;;;;;12.90;5.60;;;;;;;16.33;100.00;100466.65;1715370;83;21121;-95
2021/06/08 04:49:22;;;;;;;10.15;4.70;;;;;;;22.52;100.00;100496.43;1718129;80;21050;-90
2021/06/08 04:51:48;;;;;;;12.93;4.85;;;;;;;22.87;100.00;100489.09;1772407;81;21652;-90
2021/06/08 04:54:14;;;;;;;10.10;4.65;;;;;;;22.93;100.00;100487.71;1767738;80;21044;-90
2021/06/08 04:56:39;;;;;;;14.07;4.58;;;;;;;23.03;100.00;100490.58;1751333;80;21004;-91
2021/06/08 04:59:06;;;;;;;10.88;5.33;;;;;;;23.24;100.00;100488.48;1751445;80;21661;-90
2021/06/08 05:01:36;;;;;;;11.97;4.78;;;;;;;23.37;100.00;100487.07;1738799;82;21120;-91
2021/06/08 05:04:09;;;;;;;11.73;4.87;;;;;;;23.50;100.00;100489.44;1738481;82;21521;-92
2021/06/08 05:06:40;;;;;;;12.63;5.35;;;;;;;23.78;100.00;100490.81;1711253;83;21094;-89
2021/06/08 05:09:20;;;;;;;9.45;4.62;;;;;;;24.46;100.00;100489.84;1696880;84;21089;-93
2021/06/08 05:12:05;;;;;;;12.47;5.03;;;;;;;25.77;100.00;100493.69;1695543;84;21073;-92
2021/06/08 05:14:32;;;;;;;10.03;4.47;;;;;;;27.24;100.00;100487.22;1696322;84;20963;-92
2021/06/08 05:17:04;;;;;;;7.62;4.65;;;;;;;28.53;100.00;100497.69;1696475;84;21086;-95
2021/06/08 05:19:32;;;;;;;6.40;3.85;;;;;;;29.58;100.00;100479.62;1673689;84;20966;-93
2021/06/08 05:21:58;;;;;;;7.60;4.10;;;;;;;30.89;94.85;100474.58;1696898;84;21077;-92
2021/06/08 05:24:26;;;;;;;7.30;4.03;;;;;;;31.86;88.33;100491.06;1696260;84;21507;-92
2021/06/08 05:26:52;;;;;;;10.82;3.60;;;;;;;33.01;84.49;100493.70;1696846;84;21801;-91
2021/06/08 05:29:23;;;;;;;10.38;4.42;;;;;;;33.79;64.40;100490.33;1696677;84;21081;-92
2021/06/08 05:31:56;;;;;;;6.40;3.90;;;;;;;33.75;59.99;100495.19;1696845;84;21505;-92
2021/06/08 05:34:22;;;;;;;5.00;3.62;;;;;;;34.00;62.44;100493.41;1694150;84;21137;-91
2021/06/08 05:36:48;;;;;;;4.58;3.60;;;;;;;34.71;56.86;100488.65;1649556;84;21070;-92
2021/06/08 05:39:15;;;;;;;5.10;3.40;;;;;;;34.85;54.00;100487.59;1697254;84;21288;-92
2021/06/08 05:41:41;;;;;;;7.95;3.40;;;;;;;34.77;52.35;100488.36;1696555;84;21086;-89
2021/06/08 05:44:10;;;;;;;5.45;3.95;;;;;;;34.50;52.30;100482.80;1736722;81;20999;-92
2021/06/08 05:46:37;;;;;;;7.92;3.80;;;;;;;34.05;53.40;100491.56;1740859;80;21603;-90
2021/06/08 05:49:06;;;;;;;8.98;3.80;;;;;;;34.07;52.10;100487.13;1741233;82;21601;-89
2021/06/08 05:51:36;;;;;;;6.28;3.47;;;;;;;33.34;52.30;100493.31;1734475;82;21191;-90
2021/06/08 05:54:06;;;;;;;6.00;3.70;;;;;;;32.49;55.05;100493.02;1734174;82;21460;-90
2021/06/08 05:56:36;;;;;;;7.53;3.55;;;;;;;32.01;55.55;100483.42;1734042;82;21078;-91
2021/06/08 05:59:03;;;;;;;4.05;3.10;;;;;;;31.84;56.37;100487.87;1739724;82;20975;-91
2021/06/08 06:01:30;;;;;;;9.23;4.00;;;;;;;31.82;59.05;100488.88;1750174;82;20987;-89
2021/06/08 06:03:57;;;;;;;8.93;3.55;;;;;;;32.36;54.96;100489.92;1750241;82;21949;-88
2021/06/08 06:06:25;;;;;;;6.00;3.12;;;;;;;33.08;54.04;100495.61;1742993;81;21039;-89
2021/06/08 06:08:52;;;;;;;8.93;3.60;;;;;;;33.30;52.06;100491.16;1734147;82;21074;-90
2021/06/08 06:11:19;;;;;;;3.42;2.55;;;;;;;33.34;52.75;100482.14;1734287;82;20995;-90
2021/06/08 06:13:54;;;;;;;3.33;2.60;;;;;;;33.56;51.09;100485.45;1737038;82;20982;-90
2021/06/08 06:16:20;;;;;;;4.55;2.90;;;;;;;33.33;52.74;100489.73;1736678;82;20999;-91
2021/06/08 06:18:48;;;;;;;5.47;2.70;;;;;;;33.28;51.07;100476.23;1736896;82;21139;-89
2021/06/08 06:21:16;;;;;;;5.95;2.70;;;;;;;33.10;50.66;100484.04;1716386;82;20995;-89
2021/06/08 06:23:43;;;;;;;6.50;2.90;;;;;;;33.13;51.07;100482.59;1795000;79;21125;-90
2021/06/08 06:26:10;;;;;;;5.05;3.10;;;;;;;33.63;51.92;100483.98;1749772;79;21444;-89
2021/06/08 06:28:41;;;;;;;4.85;3.12;;;;;;;34.12;47.28;100478.84;1804616;79;21059;-92
2021/06/08 06:31:09;;;;;;;3.80;3.15;;;;;;;34.06;46.86;100481.36;1804801;79;21134;-96
2021/06/08 06:33:36;;;;;;;8.40;3.33;;;;;;;33.58;45.14;100485.23;1804605;79;20972;-91
2021/06/08 06:36:05;;;;;;;3.58;2.67;;;;;;;33.09;44.43;100482.44;1804796;79;21082;-93
2021/06/08 06:38:32;;;;;;;7.87;3.02;;;;;;;32.00;47.01;100473.45;1804688;79;20964;-91
2021/06/08 06:44:42;;;;;;;5.72;2.90;;;;;;;31.75;50.19;100474.21;1804361;79;20973;-92
2021/06/08 06:47:08;;;;;;;5.85;2.95;;;;;;;33.12;52.46;100479.62;1804674;79;21019;-95
2021/06/08 06:49:35;;;;;;;7.25;2.90;;;;;;;34.26;49.73;100475.03;1804808;79;21035;-90
2021/06/08 06:52:10;;;;;;;7.20;3.00;;;;;;;35.41;46.45;100468.84;1798839;79;21051;-93
2021/06/08 06:54:36;;;;;;;5.08;3.15;;;;;;;35.32;44.16;100465.05;1799050;79;21212;-90
2021/06/08 06:57:05;;;;;;;5.37;3.15;;;;;;;34.86;44.60;100453.58;1799201;79;21023;-91
2021/06/08 06:59:31;;;;;;;4.17;3.00;;;;;;;34.92;44.36;100451.84;1799266;79;21396;-92
2021/06/08 07:01:58;;;;;;;4.97;3.00;;;;;;;34.59;43.03;100460.67;1799170;79;21459;-90
2021/06/08 07:04:31;;;;;;;8.08;3.12;;;;;;;33.92;44.16;100465.56;1799106;79;20972;-89
2021/06/08 07:07:00;;;;;;;4.03;2.80;;;;;;;33.39;44.66;100469.11;1798863;79;21040;-92
2021/06/08 07:09:27;;;;;;;7.97;3.02;;;;;;;32.67;44.86;100469.12;1776924;79;21547;-91
2021/06/08 07:11:56;;;;;;;5.55;2.87;;;;;;;31.79;46.37;100465.22;1798362;79;21090;-86
2021/06/08 07:14:23;;;;;;;6.22;2.87;;;;;;;31.14;47.62;100469.70;1776865;79;21457;-90
2021/06/08 07:16:53;;;;;;;6.28;3.02;;;;;;;30.47;49.14;100471.44;1798748;79;20979;-90
2021/06/08 07:19:20;;;;;;;4.10;2.55;;;;;;;29.88;55.09;100480.70;1798682;79;21106;-90
2021/06/08 07:21:48;;;;;;;3.75;2.60;;;;;;;29.05;63.23;100489.31;1798727;79;21152;-89
2021/06/08 07:24:15;;;;;;;4.72;2.80;;;;;;;28.34;70.03;100481.86;1794982;79;20924;-88
2021/06/08 07:26:41;;;;;;;6.80;3.37;;;;;;;27.81;77.31;100479.59;1799036;79;21377;-89
2021/06/08 07:29:10;;;;;;;7.17;2.80;;;;;;;27.35;88.45;100484.56;1798954;79;21094;-90
2021/06/08 07:31:59;;;;;;;15.45;3.55;;;;;;;27.02;93.57;100487.48;1798993;79;21056;-85
2021/06/08 07:34:40;;;;;;;9.95;3.42;;;;;;;26.58;99.31;100478.94;1776635;79;21035;-86
2021/06/08 07:37:11;;;;;;;10.43;3.52;;;;;;;25.79;100.00;100482.47;1796957;79;21019;-86
2021/06/08 07:39:44;;;;;;;16.82;3.65;;;;;;;24.98;100.00;100483.76;1796024;79;20988;-92
2021/06/08 07:42:30;;;;;;;7.97;2.95;;;;;;;24.20;100.00;100489.54;1796746;79;20969;-93
2021/06/08 07:45:04;;;;;;;10.70;2.45;;;;;;;23.40;100.00;100480.87;1798945;79;21074;-89
2021/06/08 07:47:32;;;;;;;5.72;1.80;;;;;;;22.85;100.00;100490.83;1798887;79;21394;-87
2021/06/08 07:50:02;;;;;;;7.28;2.08;;;;;;;22.42;100.00;100493.58;1799215;79;21497;-87
2021/06/08 07:52:30;;;;;;;6.08;2.17;;;;;;;22.14;100.00;100484.34;1798424;79;21031;-86
2021/06/08 07:55:09;;;;;;;5.85;2.22;;;;;;;21.84;100.00;100487.25;1750791;81;21557;-86
2021/06/08 07:57:37;;;;;;;3.85;2.12;;;;;;;21.53;100.00;100476.19;1771922;80;21089;-88
2021/06/08 08:00:07;;;;;;;5.37;2.22;;;;;;;21.31;100.00;100476.50;1772547;80;20947;-87
2021/06/08 08:02:33;;;;;;;7.97;2.00;;;;;;;21.18;100.00;100472.91;1772725;80;21030;-86
2021/06/08 08:05:08;;;;;;;3.85;2.50;;;;;;;21.04;100.00;100467.68;1772824;80;21010;-88
2021/06/08 08:07:28;;;;;;;7.53;2.00;;;;;;;20.93;100.00;100462.92;1768758;81;20987;-86
2021/06/08 08:09:54;;;;;;;8.58;2.17;;;;;;;20.83;100.00;100464.92;1770185;79;21080;-88
2021/06/08 08:12:22;;;;;;;4.47;2.12;;;;;;;20.69;100.00;100465.73;1750775;80;20996;-89
2021/06/08 08:14:52;;;;;;;4.78;2.05;;;;;;;20.59;100.00;100464.75;1756110;80;20991;-89
2021/06/08 08:17:23;;;;;;;4.47;2.25;;;;;;;20.46;100.00;100467.91;1758818;79;20972;-89
2021/06/08 08:19:49;;;;;;;11.08;2.35;;;;;;;20.42;100.00;100462.86;1770909;79;21007;-88
2021/06/08 08:22:15;;;;;;;7.30;1.95;;;;;;;20.51;100.00;100466.94;1810038;79;21076;-86
2021/06/08 08:24:41;;;;;;;9.33;2.50;;;;;;;20.59;100.00;100465.55;1810215;78;21039;-86
2021/06/08 08:27:07;;;;;;;3.35;2.27;;;;;;;20.46;100.00;100472.02;1786592;79;20962;-86
2021/06/08 08:29:35;;;;;;;8.38;2.50;;;;;;;20.50;100.00;100474.89;1756141;81;21090;-88
2021/06/08 08:32:01;;;;;;;5.50;2.30;;;;;;;20.67;100.00;100476.20;1755620;81;21054;-87
2021/06/08 08:34:27;;;;;;;5.53;1.98;;;;;;;20.90;100.00;100468.50;1755824;80;21315;-88
2021/06/08 08:36:53;;;;;;;6.60;2.35;;;;;;;21.22;100.00;100469.72;1766074;81;20971;-87
2021/06/08 08:39:28;;;;;;;5.60;2.20;;;;;;;21.61;100.00;100462.14;1772576;80;20876;-88
2021/06/08 08:41:55;;;;;;;3.75;1.90;;;;;;;22.51;100.00;100458.34;1772647;81;20984;-90
2021/06/08 08:44:22;;;;;;;3.90;2.12;;;;;;;23.29;100.00;100462.09;1772859;81;20932;-90
2021/06/08 08:46:48;;;;;;;6.33;1.90;;;;;;;23.82;100.00;100468.89;1769336;81;21066;-88
2021/06/08 08:49:14;;;;;;;3.65;2.12;;;;;;;24.17;100.00;100470.97;1772887;80;20981;-89
2021/06/08 08:51:42;;;;;;;4.17;2.40;;;;;;;24.39;100.00;100471.73;1772529;80;20959;-88
2021/06/08 08:54:12;;;;;;;3.87;2.10;;;;;;;24.63;100.00;100467.20;1768969;81;21277;-88
2021/06/08 08:56:40;;;;;;;5.60;2.33;;;;;;;24.77;100.00;100466.16;1772759;80;21050;-88
2021/06/08 08:59:10;;;;;;;5.72;1.98;;;;;;;24.92;100.00;100474.17;1772904;81;22416;-89
2021/06/08 09:01:40;;;;;;;7.62;2.33;;;;;;;24.86;100.00;100472.27;1772570;80;20986;-89
2021/06/08 09:04:07;;;;;;;6.12;2.00;;;;;;;24.77;100.00;100485.45;1751322;81;21491;-88
2021/06/08 09:06:34;;;;;;;5.72;2.25;;;;;;;24.79;100.00;100477.61;1772878;80;20970;-89
2021/06/08 09:09:06;;;;;;;3.27;1.72;;;;;;;24.67;100.00;100469.45;1772970;81;20959;-89
2021/06/08 09:11:36;;;;;;;5.97;2.00;;;;;;;24.51;100.00;100472.83;1734751;81;23308;-88
2021/06/08 09:14:00;;;;;;;11.48;2.67;;;;;;;24.39;100.00;100460.72;1741910;81;20936;-88
2021/06/08 09:16:26;;;;;;;5.42;2.37;;;;;;;24.19;100.00;100446.06;1741967;81;21081;-88
2021/06/08 09:18:52;;;;;;;5.45;2.50;;;;;;;23.97;100.00;100442.53;1743770;81;20864;-87
2021/06/08 09:21:22;;;;;;;6.70;2.20;;;;;;;23.91;100.00;100439.24;1772601;80;21026;-87
2021/06/08 09:23:49;;;;;;;5.62;2.22;;;;;;;23.92;100.00;100442.23;1722267;82;21100;-87
2021/06/08 09:26:16;;;;;;;3.25;2.02;;;;;;;23.76;100.00;100446.33;1722172;83;21043;-87
2021/06/08 09:28:45;;;;;;;2.60;1.77;;;;;;;23.26;100.00;100450.42;1722052;83;21038;-86
2021/06/08 09:31:23;;;;;;;4.53;2.20;;;;;;;22.78;100.00;100448.00;1720730;83;21084;-87
2021/06/08 09:33:53;;;;;;;3.02;1.87;;;;;;;22.40;100.00;100453.87;1687143;85;21109;-87
2021/06/08 09:36:30;;;;;;;3.05;2.02;;;;;;;22.13;100.00;100447.88;1673484;85;21064;-88
2021/06/08 09:39:04;;;;;;;3.87;1.87;;;;;;;22.10;100.00;100445.02;1673175;85;21085;-88
2021/06/08 09:44:19;;;;;;;3.05;1.60;;;;;;;22.16;100.00;100451.30;1682983;85;21046;-87
2021/06/08 09:46:49;;;;;;;2.08;1.52;;;;;;;22.16;100.00;100445.81;1683319;85;21027;-87
2021/06/08 09:49:20;;;;;;;3.55;1.52;;;;;;;22.07;100.00;100453.36;1683328;85;21233;-86
2021/06/08 09:51:59;;;;;;;2.52;1.90;;;;;;;22.05;100.00;100460.32;1655583;86;21090;-88
2021/06/08 09:54:38;;;;;;;4.12;1.62;;;;;;;22.21;100.00;100473.66;1652092;86;21143;-86
2021/06/08 09:57:28;;;;;;;3.55;1.65;;;;;;;22.33;100.00;100475.61;1641474;86;21080;-88
2021/06/08 10:00:00;;;;;;;1.72;1.40;;;;;;;22.21;100.00;100476.41;1655881;86;21133;-89
2021/06/08 10:02:36;;;;;;;4.80;1.83;;;;;;;21.96;100.00;100472.77;1646265;86;21123;-89
2021/06/08 10:05:31;;;;;;;2.00;1.60;;;;;;;21.84;100.00;100457.66;1655817;86;21094;-88
2021/06/08 10:08:07;;;;;;;2.30;1.75;;;;;;;21.80;100.00;100453.42;1626130;86;21520;-83
2021/06/08 10:10:44;;;;;;;2.22;1.50;;;;;;;21.72;100.00;100452.36;1629183;88;21662;-82
2021/06/08 10:13:17;;;;;;;4.35;1.82;;;;;;;21.78;100.00;100452.95;1650909;86;21633;-83
2021/06/08 10:15:59;;;;;;;2.17;1.85;;;;;;;21.76;100.00;100454.64;1661288;85;21061;-83
2021/06/08 10:18:50;;;;;;;4.67;2.05;;;;;;;21.66;100.00;100454.28;1653410;85;21646;-82
2021/06/08 10:21:38;;;;;;;3.33;2.10;;;;;;;21.64;100.00;100452.44;1561946;91;21084;-83
2021/06/08 10:24:14;;;;;;;6.28;2.00;;;;;;;21.66;100.00;100448.80;1572102;91;21603;-83
2021/06/08 10:26:45;;;;;;;3.02;2.10;;;;;;;21.74;100.00;100452.83;1572187;91;21028;-84
2021/06/08 10:29:12;;;;;;;2.85;1.95;;;;;;;21.85;100.00;100459.25;1572178;91;21178;-83
2021/06/08 10:31:42;;;;;;;11.73;2.40;;;;;;;21.91;100.00;100460.08;1544991;91;21127;-83
2021/06/08 10:34:10;;;;;;;4.08;2.55;;;;;;;21.96;100.00;100463.16;1586956;90;21033;-84
2021/06/08 10:36:39;;;;;;;4.00;2.33;;;;;;;21.88;100.00;100467.59;1593514;90;21109;-84
2021/06/08 10:39:09;;;;;;;3.75;2.75;;;;;;;21.74;100.00;100476.72;1593767;90;21609;-84
2021/06/08 10:41:38;;;;;;;6.17;3.05;;;;;;;21.58;100.00;100486.70;1632194;86;21382;-84
2021/06/08 10:44:06;;;;;;;4.08;2.75;;;;;;;21.40;100.00;100482.74;1634855;87;21018;-84
2021/06/08 10:46:44;;;;;;;7.03;3.17;;;;;;;21.35;100.00;100490.33;1639189;87;21143;-84
2021/06/08 10:49:10;;;;;;;4.97;2.80;;;;;;;21.33;100.00;100492.85;1638102;86;21614;-84
2021/06/08 10:51:39;;;;;;;4.97;2.40;;;;;;;21.26;100.00;100499.42;1657252;86;21054;-84
2021/06/08 10:54:18;;;;;;;3.92;2.60;;;;;;;21.23;100.00;100500.09;1664560;86;21505;-83
2021/06/08 10:56:59;;;;;;;6.87;2.37;;;;;;;21.22;100.00;100495.75;1663928;86;21019;-83
2021/06/08 10:59:37;;;;;;;7.80;2.35;;;;;;;21.12;100.00;100495.34;1702210;83;21077;-84
2021/06/08 11:02:06;;;;;;;5.58;2.72;;;;;;;20.95;100.00;100498.45;1706575;83;21003;-84
2021/06/08 11:04:56;;;;;;;6.12;2.27;;;;;;;20.91;100.00;100498.86;1705283;83;21544;-84
2021/06/08 11:07:51;;;;;;;6.78;2.00;;;;;;;20.86;100.00;100492.22;1707025;83;21866;-83
2021/06/08 11:10:45;;;;;;;4.87;2.00;;;;;;;20.71;100.00;100490.06;1694589;83;21107;-85
2021/06/08 11:13:23;;;;;;;4.72;2.15;;;;;;;20.31;100.00;100486.25;1718189;81;21037;-85
2021/06/08 11:15:50;;;;;;;3.22;1.85;;;;;;;20.08;100.00;100484.31;1747539;81;21061;-83
2021/06/08 11:18:38;;;;;;;3.20;1.85;;;;;;;20.08;100.00;100474.73;1762570;81;21069;-82
2021/06/08 11:21:11;;;;;;;3.05;1.32;;;;;;;20.00;100.00;100469.55;1762482;81;21514;-85
2021/06/08 11:23:45;;;;;;;3.90;1.45;;;;;;;19.83;100.00;100466.28;1746686;80;21013;-85
2021/06/08 11:26:17;;;;;;;1.77;1.07;;;;;;;19.77;100.00;100467.59;1740113;80;21007;-85
2021/06/08 11:28:47;;;;;;;3.87;1.00;;;;;;;19.81;100.00;100459.53;1651472;86;21074;-84
2021/06/08 11:31:18;;;;;;;4.53;1.50;;;;;;;19.80;100.00;100462.83;1655339;86;21043;-86
2021/06/08 11:33:47;;;;;;;1.87;1.22;;;;;;;19.74;100.00;100455.93;1648235;86;21075;-84
2021/06/08 11:36:30;;;;;;;4.08;1.25;;;;;;;19.95;100.00;100449.20;1655257;86;21061;-84
2021/06/08 11:39:19;;;;;;;3.08;1.20;;;;;;;20.24;100.00;100441.61;1655235;86;21050;-85
2021/06/08 11:42:06;;;;;;;3.45;1.30;;;;;;;20.39;100.00;100427.94;1655209;86;21126;-85
2021/06/08 11:44:33;;;;;;;2.90;1.22;;;;;;;20.58;100.00;100432.44;1628513;88;21108;-82
2021/06/08 11:47:00;;;;;;;4.80;1.32;;;;;;;20.98;100.00;100436.13;1629161;87;21098;-83
2021/06/08 11:49:29;;;;;;;3.87;1.30;;;;;;;21.27;100.00;100436.63;1637511;86;21058;-82
2021/06/08 11:52:12;;;;;;;5.37;1.30;;;;;;;21.28;100.00;100431.94;1650751;84;21063;-84
2021/06/08 11:54:42;;;;;;;5.22;1.32;;;;;;;21.33;100.00;100427.06;1655350;86;21022;-85
2021/06/08 11:57:15;;;;;;;1.82;1.00;;;;;;;21.91;100.00;100420.30;1660529;86;21593;-84
2021/06/08 11:59:54;;;;;;;1.65;1.00;;;;;;;22.21;100.00;100418.75;1629940;87;21973;-85
2021/06/08 12:02:38;;;;;;;1.30;0.98;;;;;;;22.43;100.00;100403.17;1624939;88;21042;-83
2021/06/08 12:05:13;;;;;;;1.35;0.75;;;;;;;22.76;100.00;100400.83;1626590;88;21062;-85
2021/06/08 12:08:05;;;;;;;1.35;0.93;;;;;;;22.97;100.00;100401.27;1609918;89;21023;-83
2021/06/08 12:10:42;;;;;;;1.42;0.95;;;;;;;23.24;100.00;100399.70;1628491;88;20995;-85
2021/06/08 12:13:09;;;;;;;0.90;0.78;;;;;;;23.42;100.00;100395.48;1628451;88;21108;-85
2021/06/08 12:15:45;;;;;;;3.30;0.90;;;;;;;23.43;100.00;100391.58;1627604;88;21142;-85
2021/06/08 12:18:18;;;;;;;4.42;1.00;;;;;;;23.49;100.00;100395.66;1627710;88;20979;-84
2021/06/08 12:20:45;;;;;;;1.00;0.90;;;;;;;23.50;100.00;100389.03;1609370;88;21079;-85
2021/06/08 12:23:31;;;;;;;2.47;0.70;;;;;;;23.47;100.00;100387.53;1602877;89;21730;-85
2021/06/08 12:26:16;;;;;;;4.87;0.98;;;;;;;23.43;100.00;100392.95;1651382;85;21388;-85
2021/06/08 12:29:05;;;;;;;1.32;0.90;;;;;;;23.42;100.00;100385.06;1678333;85;21600;-85
2021/06/08 12:31:31;;;;;;;2.92;1.00;;;;;;;23.42;100.00;100387.23;1678433;85;21053;-85
2021/06/08 12:33:58;;;;;;;3.15;1.35;;;;;;;23.50;100.00;100394.53;1678419;85;21069;-85
2021/06/08 12:36:25;;;;;;;2.55;0.95;;;;;;;23.52;100.00;100392.79;1699121;84;21137;-86
2021/06/08 12:38:57;;;;;;;2.05;0.90;;;;;;;23.67;100.00;100392.59;1707647;83;21045;-86
2021/06/08 12:41:28;;;;;;;1.20;0.80;;;;;;;23.77;100.00;100390.16;1710606;83;21513;-85
2021/06/08 12:43:58;;;;;;;2.70;0.88;;;;;;;23.86;100.00;100387.23;1717329;82;20985;-83
2021/06/08 12:46:32;;;;;;;1.30;0.90;;;;;;;23.90;100.00;100388.69;1696591;84;21006;-84
2021/06/08 12:49:11;;;;;;;2.35;0.70;;;;;;;23.85;100.00;100384.23;1706784;84;21688;-83
2021/06/08 12:51:41;;;;;;;2.70;0.85;;;;;;;23.88;100.00;100389.61;1604283;87;22151;-84
2021/06/08 12:54:12;;;;;;;2.00;1.10;;;;;;;23.93;100.00;100386.02;1640071;86;21090;-83
2021/06/08 12:56:39;;;;;;;1.25;0.90;;;;;;;23.95;100.00;100380.97;1624600;87;21294;-82
2021/06/08 12:59:08;;;;;;;3.33;1.10;;;;;;;24.03;100.00;100370.91;1641249;87;21007;-82
2021/06/08 13:01:34;;;;;;;2.12;0.90;;;;;;;24.14;100.00;100369.80;1629213;87;21081;-83
2021/06/08 13:04:01;;;;;;;2.17;1.02;;;;;;;24.30;100.00;100374.72;1652258;85;21904;-83
2021/06/08 13:06:27;;;;;;;2.90;1.20;;;;;;;24.40;100.00;100375.53;1660683;85;21590;-83
2021/06/08 13:08:54;;;;;;;4.17;1.15;;;;;;;24.49;100.00;100380.88;1659748;85;20981;-83
2021/06/08 13:11:24;;;;;;;2.83;0.80;;;;;;;24.45;100.00;100386.31;1662229;85;21068;-82
2021/06/08 13:13:52;;;;;;;1.47;0.90;;;;;;;24.53;100.00;100392.80;1642974;86;21104;-83
2021/06/08 13:16:36;;;;;;;0.68;0.68;;;;;;;24.64;100.00;100399.31;1641733;86;21618;-85
2021/06/08 13:22:00;;;;;;;6.87;1.30;;;;;;;24.77;100.00;100406.90;1596373;89;21049;-84
2021/06/08 13:24:27;;;;;;;5.83;0.80;;;;;;;24.82;100.00;100411.31;1560325;91;21181;-84
2021/06/08 13:27:01;;;;;;;1.82;0.78;;;;;;;24.85;100.00;100408.62;1563715;91;21046;-83
2021/06/08 13:29:29;;;;;;;1.60;1.07;;;;;;;24.96;97.47;100405.31;1534711;93;22014;-84
2021/06/08 13:31:56;;;;;;;1.90;1.20;;;;;;;25.02;100.00;100405.24;1536664;93;20999;-84
2021/06/08 13:34:27;;;;;;;5.78;1.20;;;;;;;25.04;100.00;100412.58;1531247;93;21187;-84
2021/06/08 13:37:05;;;;;;;2.65;1.15;;;;;;;25.06;94.68;100419.89;1516180;94;21104;-84
2021/06/08 13:39:41;;;;;;;1.40;0.80;;;;;;;25.05;93.38;100412.79;1526856;93;21029;-84
2021/06/08 13:42:18;;;;;;;1.07;0.90;;;;;;;25.02;93.09;100406.03;1498281;95;21162;-87
2021/06/08 13:45:13;;;;;;;5.33;1.10;;;;;;;24.97;91.94;100398.62;1500929;95;21134;-83
2021/06/08 13:47:41;;;;;;;1.07;0.90;;;;;;;24.88;92.78;100398.28;1509004;93;21114;-84
2021/06/08 13:50:29;;;;;;;2.52;1.00;;;;;;;24.79;95.53;100402.39;1549652;92;21048;-84
2021/06/08 13:53:06;;;;;;;1.27;0.85;;;;;;;24.68;93.49;100403.55;1534252;91;21615;-84
2021/06/08 13:55:38;;;;;;;1.70;0.90;;;;;;;24.59;90.02;100397.42;1549183;91;21643;-87
2021/06/08 14:01:15;;;;;;;1.47;1.02;;;;;;;24.55;94.75;100397.93;1557545;91;21115;-84
2021/06/08 14:03:42;;;;;;;2.02;1.10;;;;;;;24.54;99.42;100390.25;1589535;90;21587;-84
2021/06/08 14:06:14;;;;;;;2.22;1.07;;;;;;;24.57;100.00;100384.60;1595419;88;21089;-84
2021/06/08 14:08:41;;;;;;;1.17;1.07;;;;;;;24.56;100.00;100382.43;1610223;89;21278;-85
2021/06/08 14:11:08;;;;;;;1.60;1.17;;;;;;;24.53;96.62;100389.21;1647970;86;21117;-85
2021/06/08 14:13:41;;;;;;;3.77;1.20;;;;;;;24.58;96.79;100388.94;1669892;86;32700;-85
2021/06/08 14:16:07;;;;;;;3.25;1.32;;;;;;;24.66;89.73;100378.30;1669605;86;21061;-85
2021/06/08 14:18:35;;;;;;;1.25;1.15;;;;;;;24.55;92.24;100377.27;1682392;84;21029;-85
2021/06/08 14:21:02;;;;;;;3.60;1.30;;;;;;;24.59;95.31;100374.82;1656116;85;21920;-84
2021/06/08 14:23:29;;;;;;;2.70;1.17;;;;;;;24.55;96.11;100371.17;1668999;85;21039;-86
2021/06/08 14:25:55;;;;;;;2.98;1.37;;;;;;;24.61;97.71;100380.75;1684012;85;21041;-85
2021/06/08 14:28:22;;;;;;;1.67;1.22;;;;;;;24.66;98.17;100372.20;1684033;85;20901;-85
2021/06/08 14:30:48;;;;;;;3.95;1.30;;;;;;;24.61;99.38;100382.13;1684030;85;21008;-85
2021/06/08 14:33:14;;;;;;;3.62;1.57;;;;;;;24.67;99.76;100374.38;1684126;85;21160;-85
2021/06/08 14:35:40;;;;;;;5.97;1.75;;;;;;;24.80;100.00;100377.23;1684248;85;20985;-85
2021/06/08 14:38:06;;;;;;;1.70;1.30;;;;;;;24.91;99.05;100369.99;1684417;85;21036;-86